Historyczne dane pomiarowe

Dodano dane terminowe – wersja testowa.

Dane z okresu 1951-2019

Wersja bazy: 1.34 [2019-03-16, lista zmian], aktualizacja planowana na 2019-04-15

Dane meteo z obszaru Polski uzyskane na podstawie danych udostępnionych przez Instytut Meteorologii i Gospodarki Wodnej – Państwowy Instytut Badawczy.

 

Wybierz Datę:    

       

TemperaturaWilgotnośćWiatrCiśnienieOpadyŚniegCzas trwania zjawisk
 Stacja t tx tn tng RH VA  wxwx mslp ppp RRR   cm mm wxwxwxwxwxwxwx
1999-07-16 11.2 16.0 5.2 1.1 86.5- 1.7 2.7---- 0.0------------
1999-07-17 13.0 19.1 5.4 1.6 85.8- 2.0 2.3---- 0.0------------
1999-07-18 15.3 21.6 5.6 1.8 74.3- 0.3 0.7---- 0.0------------
1999-07-19 15.7 23.7 5.6 2.4 74.5- 0.3 3.0---- 0.0------------
1999-07-20 18.1 24.6 10.3 4.8 76.3- 4.0 5.0---- 0.0------------
1999-07-21 17.3 22.1 13.7 11.1 88.3- 4.0 4.3---- 3.3------------
1999-07-22 11.8 17.5 7.2 4.6 87.5- 3.0 3.3---- 0.0------------
1999-07-23 10.3 14.7 6.2 3.3 93.5- 8.0 2.7---- 1.8------------
1999-07-24 10.8 14.7 8.4 7.1 94.0- 8.0 1.3---- 0.0------------
1999-07-25 14.8 19.4 10.1 7.4 87.5- 3.0 2.7---- 0.0------------
1999-07-26 14.9 21.9 6.2 2.3 93.8- 3.3 2.3---- 1.6------------
1999-07-27 12.9 17.5 10.0 9.8 93.0- 8.0 2.3---- 0.1------------
1999-07-28 12.2 17.6 3.5 0.1 79.0- 3.7 3.7---- 0.0------------
1999-07-29 12.2 18.6 4.2 0.1 85.3- 3.7 2.3---- 0.0------------
1999-07-30 12.5 19.1 3.7 -1.1 84.5- 0.0 1.3---- 0.0------------
1999-07-31 12.8 20.1 3.8 0.7 72.3- 0.7 3.3---- 0.0------------
1999-08-01 14.3 20.6 3.9 -0.1 78.3- 1.0 1.0---- 0.0------------
1999-08-02 11.7 20.1 4.2 -0.1 82.8- 2.3 1.0---- 0.0------------
1999-08-03 12.0 20.6 3.0 -1.6 79.3- 0.0 0.7---- 0.0------------
1999-08-04 12.6 20.8 4.7 -0.1 85.5- 1.3 1.7---- 0.0------------
1999-08-05 13.7 20.6 4.4 -0.1 82.8- 3.0 1.0---- 0.0------------
1999-08-06 16.7 22.1 13.1 9.6 93.0- 8.0 2.3---- 0.0------------
1999-08-07 15.0 23.1 7.8 2.3 93.8- 5.3 2.0---- 0.0------------
1999-08-08 16.7 22.8 10.6 6.7 85.0- 1.3 2.3---- 1.8------------
1999-08-09 15.2 20.6 9.7 5.5 96.5- 8.0 4.0---- 1.4------------
1999-08-10 15.0 17.3 13.3 9.8100.0- 8.0 3.7---- 5.9------------
1999-08-11 12.4 15.3 10.4 6.5 99.8- 8.0 3.7---- 6.0------------
1999-08-12 9.7 12.5 8.0 3.8 91.0- 8.0 3.0---- 0.0------------
1999-08-13 8.5 13.1 5.7 0.9 92.5- 0.7 2.7---- 0.2------------
1999-08-14 9.0 16.3 -0.8 -4.6 87.8- 3.0 2.0---- 2.6------------
146.0 ms

 

Źródłem pochodzenia danych jest Instytut Meteorologii i Gospodarki Wodnej – Państwowy Instytut Badawczy. Dane Instytutu Meteorologii i Gospodarki Wodnej – Państwowego Instytutu Badawczego zostały przetworzone.

Dane źródłowe można odnaleźć na stronie https://dane.imgw.pl